createdAt,value
2017-05-22T00:00:30.931Z,0
2017-05-22T00:01:30.904Z,0
2017-05-22T00:02:30.883Z,0
2017-05-22T00:03:30.866Z,0
2017-05-22T00:04:30.844Z,0
2017-05-22T00:05:30.515Z,0
2017-05-22T00:06:30.794Z,0
2017-05-22T00:07:30.472Z,0
2017-05-22T00:08:30.752Z,0
2017-05-22T00:09:30.731Z,0
2017-05-22T00:10:30.722Z,0
2017-05-22T00:11:30.692Z,0
2017-05-22T00:12:30.368Z,0
2017-05-22T00:13:30.357Z,0
2017-05-22T00:14:30.632Z,0
2017-05-22T00:15:30.661Z,0
2017-05-22T00:16:30.596Z,0
2017-05-22T00:17:30.561Z,0
2017-05-22T00:18:30.536Z,0
2017-05-22T00:19:30.538Z,0
2017-05-22T00:20:30.503Z,0
2017-05-22T00:21:30.485Z,0
2017-05-22T00:22:30.457Z,0
2017-05-22T00:23:30.138Z,0
2017-05-22T00:24:30.426Z,0
2017-05-22T00:25:30.386Z,0
2017-05-22T00:26:30.372Z,0
2017-05-22T00:27:30.357Z,0
2017-05-22T00:28:30.337Z,0
2017-05-22T00:29:30.312Z,0
2017-05-22T00:30:30.285Z,0
2017-05-22T00:31:30.271Z,0
2017-05-22T00:32:30.300Z,0
2017-05-22T00:33:30.227Z,0
2017-05-22T00:34:30.201Z,0
2017-05-22T00:35:29.877Z,0
2017-05-22T00:36:30.166Z,0
2017-05-22T00:37:30.150Z,0
2017-05-22T00:38:30.139Z,0
2017-05-22T00:39:30.174Z,0
2017-05-22T00:40:30.079Z,0
2017-05-22T00:41:29.757Z,0
2017-05-22T00:42:30.030Z,0
2017-05-22T00:43:30.025Z,0
2017-05-22T00:44:30.004Z,0
2017-05-22T00:45:29.673Z,0
2017-05-22T00:46:29.947Z,0
2017-05-22T00:47:29.926Z,0
2017-05-22T00:48:29.910Z,0
2017-05-22T00:49:29.890Z,0
2017-05-22T00:50:29.879Z,0
2017-05-22T00:51:29.843Z,0
2017-05-22T00:52:30.126Z,0
2017-05-22T00:53:29.499Z,0
2017-05-22T00:54:29.782Z,0
2017-05-22T00:55:29.519Z,0
2017-05-22T00:56:30.740Z,0
2017-05-22T00:57:29.418Z,0
2017-05-22T00:58:29.720Z,0
2017-05-22T00:59:29.685Z,0
2017-05-22T01:00:29.670Z,0
2017-05-22T01:01:29.628Z,0
2017-05-22T01:02:29.324Z,0
2017-05-22T01:03:29.542Z,0
2017-05-22T01:04:29.576Z,0
2017-05-22T01:05:29.256Z,0
2017-05-22T01:06:29.591Z,0
2017-05-22T01:07:29.260Z,0
2017-05-22T01:08:29.507Z,0
2017-05-22T01:09:29.520Z,0
2017-05-22T01:10:29.504Z,0
2017-05-22T01:11:29.433Z,0
2017-05-22T01:12:29.410Z,0
2017-05-22T01:13:29.391Z,0
2017-05-22T01:14:29.369Z,0
2017-05-22T01:15:29.342Z,0
2017-05-22T01:16:29.071Z,0
2017-05-22T01:17:29.304Z,0
2017-05-22T01:18:29.278Z,0
2017-05-22T01:19:28.952Z,0
2017-05-22T01:20:29.246Z,0
2017-05-22T01:21:29.219Z,0
2017-05-22T01:22:29.313Z,0
2017-05-22T01:23:29.173Z,0
2017-05-22T01:24:29.146Z,0
2017-05-22T01:25:29.136Z,0
2017-05-22T01:26:29.113Z,0
2017-05-22T01:27:29.140Z,0
2017-05-22T01:28:29.073Z,0
2017-05-22T01:29:29.048Z,0
2017-05-22T01:30:29.031Z,0
2017-05-22T01:31:29.002Z,0
2017-05-22T01:32:28.983Z,0
2017-05-22T01:33:28.949Z,0
2017-05-22T01:34:28.642Z,0
2017-05-22T01:35:28.982Z,0
2017-05-22T01:36:28.589Z,0
2017-05-22T01:37:28.874Z,0
2017-05-22T01:38:28.857Z,0
2017-05-22T01:39:28.838Z,0
2017-05-22T01:40:28.820Z,0
2017-05-22T01:41:28.802Z,0
2017-05-22T01:42:28.790Z,0
2017-05-22T01:43:28.821Z,0
2017-05-22T01:44:28.725Z,0
2017-05-22T01:45:28.712Z,0
2017-05-22T01:46:28.694Z,0
2017-05-22T01:47:28.719Z,0
2017-05-22T01:48:28.701Z,0
2017-05-22T01:49:28.628Z,0
2017-05-22T01:50:28.604Z,0
2017-05-22T01:51:28.585Z,0
2017-05-22T01:52:28.561Z,0
2017-05-22T01:53:28.586Z,0
2017-05-22T01:54:28.516Z,0
2017-05-22T01:55:28.503Z,0
2017-05-22T01:56:28.478Z,0
2017-05-22T01:57:28.467Z,0
2017-05-22T01:58:28.430Z,0
2017-05-22T01:59:28.422Z,0
2017-05-22T02:00:28.403Z,0
2017-05-22T02:01:28.374Z,0
2017-05-22T02:02:28.352Z,0
2017-05-22T02:03:28.026Z,0
2017-05-22T02:04:28.314Z,0
2017-05-22T02:05:28.283Z,0
2017-05-22T02:06:28.263Z,0
2017-05-22T02:07:27.695Z,0
2017-05-22T02:08:28.324Z,0
2017-05-22T02:09:28.297Z,0
2017-05-22T02:10:28.229Z,0
2017-05-22T02:11:27.854Z,0
2017-05-22T02:12:28.143Z,0
2017-05-22T02:13:28.125Z,0
2017-05-22T02:14:27.792Z,0
2017-05-22T02:15:28.080Z,0
2017-05-22T02:16:28.054Z,0
2017-05-22T02:17:28.029Z,0
2017-05-22T02:18:27.410Z,0
2017-05-22T02:19:27.999Z,0
2017-05-22T02:20:27.966Z,0
2017-05-22T02:21:27.994Z,0
2017-05-22T02:22:27.930Z,0
2017-05-22T02:23:27.905Z,0
2017-05-22T02:24:27.875Z,0
2017-05-22T02:25:27.862Z,0
2017-05-22T02:26:27.842Z,0
2017-05-22T02:27:27.812Z,0
2017-05-22T02:28:27.809Z,0
2017-05-22T02:29:27.782Z,0
2017-05-22T02:30:27.144Z,0
2017-05-22T02:31:27.734Z,0
2017-05-22T02:32:27.716Z,0
2017-05-22T02:33:27.686Z,0
2017-05-22T02:34:27.668Z,0
2017-05-22T02:35:27.665Z,0
2017-05-22T02:36:27.629Z,0
2017-05-22T02:37:27.658Z,0
2017-05-22T02:38:26.994Z,0
2017-05-22T02:39:27.566Z,0
2017-05-22T02:40:27.232Z,0
2017-05-22T02:41:27.533Z,0
2017-05-22T02:42:27.485Z,0
2017-05-22T02:43:27.474Z,0
2017-05-22T02:44:27.522Z,0
2017-05-22T02:45:27.438Z,0
2017-05-22T02:46:27.413Z,0
2017-05-22T02:47:27.398Z,0
2017-05-22T02:48:27.386Z,0
2017-05-22T02:49:27.407Z,0
2017-05-22T02:50:27.316Z,0
2017-05-22T02:51:27.314Z,0
2017-05-22T02:52:27.337Z,0
2017-05-22T02:53:27.268Z,0
2017-05-22T02:54:26.944Z,0
2017-05-22T02:55:27.216Z,0
2017-05-22T02:56:26.891Z,0
2017-05-22T02:57:27.171Z,0
2017-05-22T02:58:27.154Z,0
2017-05-22T02:59:27.137Z,0
2017-05-22T03:00:27.159Z,0
2017-05-22T03:01:27.095Z,0
2017-05-22T03:02:27.063Z,0
2017-05-22T03:03:27.058Z,0
2017-05-22T03:04:27.030Z,0
2017-05-22T03:05:27.048Z,0
2017-05-22T03:06:26.980Z,0
2017-05-22T03:07:26.968Z,0
2017-05-22T03:08:26.951Z,0
2017-05-22T03:09:26.937Z,0
2017-05-22T03:10:26.891Z,0
2017-05-22T03:11:26.881Z,0
2017-05-22T03:12:26.850Z,0
2017-05-22T03:13:26.539Z,0
2017-05-22T03:14:26.822Z,0
2017-05-22T03:15:27.091Z,0
2017-05-22T03:16:26.763Z,5
2017-05-22T03:17:26.750Z,5
2017-05-22T03:18:26.722Z,5
2017-05-22T03:19:26.709Z,5
2017-05-22T03:20:26.386Z,5
2017-05-22T03:21:26.659Z,5
2017-05-22T03:22:26.696Z,5
2017-05-22T03:23:26.033Z,5
2017-05-22T03:24:26.619Z,5
2017-05-22T03:25:26.334Z,5
2017-05-22T03:26:26.559Z,5
2017-05-22T03:27:26.840Z,5
2017-05-22T03:28:26.505Z,10
2017-05-22T03:29:26.488Z,10
2017-05-22T03:30:26.722Z,10
2017-05-22T03:31:26.237Z,10
2017-05-22T03:32:26.429Z,10
2017-05-22T03:33:26.415Z,15
2017-05-22T03:34:26.397Z,15
2017-05-22T03:35:26.359Z,15
2017-05-22T03:36:26.333Z,20
2017-05-22T03:37:26.345Z,20
2017-05-22T03:38:26.295Z,20
2017-05-22T03:39:25.985Z,20
2017-05-22T03:40:26.249Z,20
2017-05-22T03:41:25.950Z,25
2017-05-22T03:42:26.209Z,25
2017-05-22T03:43:26.186Z,25
2017-05-22T03:44:26.173Z,25
2017-05-22T03:45:26.141Z,25
2017-05-22T03:46:26.141Z,30
2017-05-22T03:47:26.097Z,30
2017-05-22T03:48:26.075Z,30
2017-05-22T03:49:26.070Z,35
2017-05-22T03:50:26.032Z,35
2017-05-22T03:51:26.014Z,35
2017-05-22T03:52:25.995Z,40
2017-05-22T03:53:25.358Z,40
2017-05-22T03:54:25.949Z,40
2017-05-22T03:55:25.618Z,45
2017-05-22T03:56:25.952Z,45
2017-05-22T03:57:25.884Z,45
2017-05-22T03:58:25.608Z,45
2017-05-22T03:59:25.844Z,50
2017-05-22T04:00:25.814Z,55
2017-05-22T04:01:25.795Z,60
2017-05-22T04:02:25.776Z,65
2017-05-22T04:03:25.756Z,70
2017-05-22T04:04:25.730Z,70
2017-05-22T04:05:25.711Z,75
2017-05-22T04:06:25.685Z,80
2017-05-22T04:07:25.669Z,85
2017-05-22T04:08:25.691Z,90
2017-05-22T04:09:25.698Z,85
2017-05-22T04:10:25.603Z,85
2017-05-22T04:11:25.589Z,90
2017-05-22T04:12:25.567Z,90
2017-05-22T04:13:25.589Z,90
2017-05-22T04:14:25.527Z,90
2017-05-22T04:15:25.501Z,90
2017-05-22T04:16:25.174Z,95
2017-05-22T04:17:25.453Z,95
2017-05-22T04:18:25.427Z,100
2017-05-22T04:19:25.416Z,105
2017-05-22T04:20:25.092Z,110
2017-05-22T04:21:25.362Z,115
2017-05-22T04:22:25.354Z,115
2017-05-22T04:23:25.320Z,120
2017-05-22T04:24:25.357Z,120
2017-05-22T04:25:25.282Z,130
2017-05-22T04:26:25.261Z,135
2017-05-22T04:27:25.237Z,135
2017-05-22T04:28:25.223Z,140
2017-05-22T04:29:25.204Z,140
2017-05-22T04:30:25.183Z,150
2017-05-22T04:31:25.164Z,155
2017-05-22T04:32:25.139Z,165
2017-05-22T04:33:25.119Z,170
2017-05-22T04:34:25.135Z,170
2017-05-22T04:35:24.769Z,175
2017-05-22T04:36:25.052Z,180
2017-05-22T04:37:24.725Z,190
2017-05-22T04:38:25.013Z,200
2017-05-22T04:39:25.053Z,205
2017-05-22T04:40:24.963Z,220
2017-05-22T04:41:24.961Z,235
2017-05-22T04:42:24.922Z,240
2017-05-22T04:43:24.902Z,240
2017-05-22T04:44:24.893Z,245
2017-05-22T04:45:24.976Z,250
2017-05-22T04:46:24.834Z,250
2017-05-22T04:47:24.528Z,250
2017-05-22T04:48:24.503Z,245
2017-05-22T04:49:24.781Z,245
2017-05-22T04:50:24.764Z,255
2017-05-22T04:51:24.734Z,260
2017-05-22T04:52:24.429Z,260
2017-05-22T04:53:24.703Z,255
2017-05-22T04:54:24.391Z,255
2017-05-22T04:55:24.668Z,240
2017-05-22T04:56:24.643Z,245
2017-05-22T04:57:24.619Z,270
2017-05-22T04:58:24.614Z,295
2017-05-22T04:59:24.601Z,310
2017-05-22T05:00:24.563Z,320
2017-05-22T05:01:24.249Z,330
2017-05-22T05:02:24.218Z,340
2017-05-22T05:03:24.563Z,360
2017-05-22T05:04:24.482Z,375
2017-05-22T05:05:24.160Z,390
2017-05-22T05:06:24.446Z,395
2017-05-22T05:07:24.424Z,410
2017-05-22T05:08:24.402Z,420
2017-05-22T05:09:24.437Z,425
2017-05-22T05:10:24.370Z,430
2017-05-22T05:11:24.353Z,430
2017-05-22T05:12:24.024Z,435
2017-05-22T05:13:24.345Z,440
2017-05-22T05:14:24.544Z,450
2017-05-22T05:15:24.264Z,460
2017-05-22T05:16:24.275Z,455
2017-05-22T05:17:24.238Z,460
2017-05-22T05:18:24.237Z,460
2017-05-22T05:19:24.202Z,465
2017-05-22T05:20:24.193Z,475
2017-05-22T05:21:23.866Z,480
2017-05-22T05:22:23.838Z,485
2017-05-22T05:23:24.137Z,490
2017-05-22T05:24:24.105Z,500
2017-05-22T05:25:24.091Z,500
2017-05-22T05:26:24.129Z,505
2017-05-22T05:27:24.069Z,515
2017-05-22T05:28:24.096Z,520
2017-05-22T05:29:24.040Z,520
2017-05-22T05:30:24.022Z,525
2017-05-22T05:31:23.993Z,535
2017-05-22T05:32:24.041Z,550
2017-05-22T05:33:24.012Z,560
2017-05-22T05:34:23.939Z,560
2017-05-22T05:35:23.924Z,570
2017-05-22T05:36:23.907Z,580
2017-05-22T05:37:23.888Z,590
2017-05-22T05:38:23.572Z,595
2017-05-22T05:39:23.905Z,605
2017-05-22T05:40:23.836Z,615
2017-05-22T05:41:23.830Z,620
2017-05-22T05:42:23.792Z,635
2017-05-22T05:43:23.794Z,640
2017-05-22T05:44:23.773Z,650
2017-05-22T05:45:23.806Z,660
2017-05-22T05:46:23.737Z,665
2017-05-22T05:47:23.416Z,670
2017-05-22T05:48:23.710Z,660
2017-05-22T05:49:23.691Z,670
2017-05-22T05:50:23.890Z,690
2017-05-22T05:51:23.718Z,695
2017-05-22T05:52:23.345Z,705
2017-05-22T05:53:23.629Z,715
2017-05-22T05:54:23.668Z,715
2017-05-22T05:55:23.600Z,725
2017-05-22T05:56:23.662Z,735
2017-05-22T05:57:23.592Z,745
2017-05-22T05:58:23.554Z,745
2017-05-22T05:59:23.236Z,755
2017-05-22T06:00:23.568Z,760
2017-05-22T06:01:23.508Z,765
2017-05-22T06:02:23.511Z,765
2017-05-22T06:03:23.524Z,770
2017-05-22T06:04:23.458Z,785
2017-05-22T06:05:23.441Z,790
2017-05-22T06:06:23.432Z,800
2017-05-22T06:07:23.425Z,810
2017-05-22T06:08:23.101Z,825
2017-05-22T06:09:23.399Z,830
2017-05-22T06:10:23.375Z,835
2017-05-22T06:11:23.370Z,835
2017-05-22T06:12:23.037Z,845
2017-05-22T06:13:23.350Z,860
2017-05-22T06:14:23.318Z,865
2017-05-22T06:15:23.311Z,880
2017-05-22T06:16:23.000Z,890
2017-05-22T06:17:23.335Z,895
2017-05-22T06:18:22.968Z,905
2017-05-22T06:19:23.265Z,915
2017-05-22T06:20:23.241Z,915
2017-05-22T06:21:23.224Z,920
2017-05-22T06:22:22.908Z,920
2017-05-22T06:23:23.196Z,925
2017-05-22T06:24:23.247Z,930
2017-05-22T06:25:23.205Z,940
2017-05-22T06:26:23.160Z,950
2017-05-22T06:27:23.150Z,955
2017-05-22T06:28:23.139Z,965
2017-05-22T06:29:22.817Z,970
2017-05-22T06:30:23.109Z,985
2017-05-22T06:31:23.094Z,995
2017-05-22T06:32:23.073Z,1005
2017-05-22T06:33:23.061Z,1020
2017-05-22T06:34:23.065Z,1030
2017-05-22T06:35:23.049Z,1040
2017-05-22T06:36:22.721Z,1050
2017-05-22T06:37:23.019Z,1055
2017-05-22T06:38:23.000Z,1065
2017-05-22T06:39:23.008Z,1075
2017-05-22T06:40:22.967Z,1090
2017-05-22T06:41:22.962Z,1095
2017-05-22T06:42:23.028Z,1105
2017-05-22T06:43:22.941Z,1105
2017-05-22T06:44:22.940Z,1110
2017-05-22T06:45:22.603Z,1120
2017-05-22T06:46:22.604Z,1125
2017-05-22T06:47:22.613Z,1135
2017-05-22T06:48:22.899Z,1145
2017-05-22T06:49:22.882Z,1150
2017-05-22T06:50:22.809Z,1165
2017-05-22T06:51:22.848Z,1165
2017-05-22T06:52:22.841Z,1170
2017-05-22T06:53:22.821Z,1180
2017-05-22T06:54:22.833Z,1185
2017-05-22T06:55:22.803Z,1190
2017-05-22T06:56:22.796Z,1195
2017-05-22T06:57:22.790Z,1200
2017-05-22T06:58:22.771Z,1205
2017-05-22T06:59:22.474Z,1205
2017-05-22T07:00:22.754Z,1205
2017-05-22T07:01:22.800Z,1210
2017-05-22T07:02:22.744Z,1215
2017-05-22T07:03:22.733Z,1220
2017-05-22T07:04:22.404Z,1230
2017-05-22T07:05:22.701Z,1235
2017-05-22T07:06:22.753Z,1250
2017-05-22T07:07:22.682Z,1245
2017-05-22T07:08:22.721Z,1260
2017-05-22T07:09:22.669Z,1260
2017-05-22T07:10:22.648Z,1265
2017-05-22T07:11:22.331Z,1265
2017-05-22T07:12:22.622Z,1270
2017-05-22T07:13:22.621Z,1275
2017-05-22T07:14:22.621Z,1280
2017-05-22T07:15:22.300Z,1285
2017-05-22T07:16:22.601Z,1295
2017-05-22T07:17:22.578Z,1295
2017-05-22T07:18:22.586Z,1305
2017-05-22T07:19:22.270Z,1305
2017-05-22T07:20:22.544Z,1320
2017-05-22T07:21:22.590Z,1320
2017-05-22T07:22:22.577Z,1340
2017-05-22T07:23:22.571Z,1340
2017-05-22T07:24:22.530Z,1355
2017-05-22T07:25:22.204Z,1355
2017-05-22T07:26:22.541Z,1365
2017-05-22T07:27:22.474Z,1370
2017-05-22T07:28:22.468Z,1380
2017-05-22T07:29:22.473Z,1385
2017-05-22T07:30:22.444Z,1390
2017-05-22T07:31:22.138Z,1400
2017-05-22T07:32:22.440Z,1400
2017-05-22T07:33:22.421Z,1420
2017-05-22T07:34:22.433Z,1425
2017-05-22T07:35:22.407Z,1425
2017-05-22T07:36:22.403Z,1445
2017-05-22T07:37:22.392Z,1460
2017-05-22T07:38:22.386Z,1480
2017-05-22T07:39:22.369Z,1480
2017-05-22T07:40:22.068Z,1490
2017-05-22T07:41:22.356Z,1510
2017-05-22T07:42:22.344Z,1515
2017-05-22T07:43:22.343Z,1535
2017-05-22T07:44:22.334Z,1530
2017-05-22T07:45:22.318Z,1535
2017-05-22T07:46:22.327Z,1535
2017-05-22T07:47:22.313Z,1530
2017-05-22T07:48:22.306Z,1520
2017-05-22T07:49:22.293Z,1525
2017-05-22T07:50:22.292Z,1535
2017-05-22T07:51:22.279Z,1535
2017-05-22T07:52:22.269Z,1545
2017-05-22T07:53:22.276Z,1555
2017-05-22T07:54:22.273Z,1565
2017-05-22T07:55:22.271Z,1580
2017-05-22T07:56:22.249Z,1590
2017-05-22T07:57:22.247Z,1590
2017-05-22T07:58:22.246Z,1605
2017-05-22T07:59:22.239Z,1610
2017-05-22T08:00:22.226Z,1620
2017-05-22T08:01:21.917Z,1635
2017-05-22T08:02:22.276Z,1635
2017-05-22T08:03:22.210Z,1620
2017-05-22T08:04:22.205Z,1615
2017-05-22T08:05:22.244Z,1620
2017-05-22T08:06:22.197Z,1620
2017-05-22T08:07:22.193Z,1630
2017-05-22T08:08:22.180Z,1625
2017-05-22T08:09:22.179Z,1705
2017-05-22T08:10:22.163Z,1855
2017-05-22T08:11:21.872Z,1925
2017-05-22T08:12:22.172Z,1915
2017-05-22T08:13:21.855Z,1900
2017-05-22T08:14:21.846Z,1855
2017-05-22T08:15:22.135Z,1770
2017-05-22T08:16:21.823Z,1715
2017-05-22T08:17:22.179Z,1705
2017-05-22T08:18:22.124Z,1715
2017-05-22T08:19:22.120Z,1725
2017-05-22T08:20:21.804Z,1715
2017-05-22T08:21:22.125Z,1710
2017-05-22T08:22:22.109Z,1705
2017-05-22T08:23:22.092Z,1695
2017-05-22T08:24:22.095Z,1695
2017-05-22T08:25:22.113Z,1690
2017-05-22T08:26:22.077Z,1660
2017-05-22T08:27:22.075Z,1645
2017-05-22T08:28:22.076Z,1650
2017-05-22T08:29:22.051Z,1645
2017-05-22T08:30:22.053Z,1665
2017-05-22T08:31:22.090Z,1695
2017-05-22T08:32:22.131Z,1725
2017-05-22T08:33:22.046Z,1770
2017-05-22T08:34:22.023Z,1815
2017-05-22T08:35:22.023Z,1885
2017-05-22T08:36:22.010Z,2010
2017-05-22T08:37:21.721Z,2080
2017-05-22T08:38:22.004Z,2120
2017-05-22T08:39:21.994Z,2195
2017-05-22T08:40:21.982Z,2170
2017-05-22T08:41:21.990Z,2180
2017-05-22T08:42:21.677Z,2160
2017-05-22T08:43:21.917Z,2115
2017-05-22T08:44:21.967Z,2065
2017-05-22T08:45:22.013Z,1965
2017-05-22T08:46:21.354Z,1915
2017-05-22T08:47:21.948Z,1915
2017-05-22T08:48:21.951Z,1915
2017-05-22T08:49:21.947Z,1915
2017-05-22T08:50:21.649Z,1930
2017-05-22T08:51:21.924Z,1920
2017-05-22T08:52:21.935Z,1930
2017-05-22T08:53:21.928Z,1925
2017-05-22T08:54:21.916Z,1925
2017-05-22T08:55:21.606Z,1915
2017-05-22T08:56:21.594Z,1930
2017-05-22T08:57:21.943Z,1915
2017-05-22T08:58:21.907Z,1920
2017-05-22T08:59:21.592Z,1935
2017-05-22T09:00:21.577Z,1935
2017-05-22T09:01:21.882Z,1910
2017-05-22T09:02:21.572Z,1880
2017-05-22T09:03:21.888Z,1955
2017-05-22T09:04:21.860Z,1970
2017-05-22T09:05:21.857Z,1860
2017-05-22T09:06:21.232Z,1905
2017-05-22T09:07:21.895Z,1985
2017-05-22T09:08:21.858Z,2040
2017-05-22T09:09:21.837Z,2020
2017-05-22T09:10:21.809Z,1990
2017-05-22T09:11:21.806Z,1995
2017-05-22T09:12:21.807Z,1995
2017-05-22T09:13:21.853Z,1985
2017-05-22T09:14:21.786Z,1965
2017-05-22T09:15:21.793Z,1990
2017-05-22T09:16:21.784Z,2045
2017-05-22T09:17:21.769Z,2035
2017-05-22T09:18:21.776Z,2020
2017-05-22T09:19:21.768Z,1890
2017-05-22T09:20:21.758Z,1990
2017-05-22T09:21:21.444Z,2040
2017-05-22T09:22:21.748Z,2055
2017-05-22T09:23:21.765Z,2090
2017-05-22T09:24:21.129Z,2115
2017-05-22T09:25:21.727Z,2125
2017-05-22T09:26:21.713Z,2055
2017-05-22T09:27:21.719Z,2095
2017-05-22T09:28:21.697Z,2100
2017-05-22T09:29:21.756Z,2140
2017-05-22T09:30:21.397Z,2130
2017-05-22T09:31:21.691Z,2130
2017-05-22T09:32:21.682Z,2080
2017-05-22T09:33:21.355Z,2085
2017-05-22T09:34:21.717Z,2100
2017-05-22T09:35:21.650Z,2085
2017-05-22T09:36:21.654Z,2090
2017-05-22T09:37:21.638Z,2100
2017-05-22T09:38:21.636Z,2125
2017-05-22T09:39:21.635Z,2055
2017-05-22T09:40:21.370Z,2050
2017-05-22T09:41:21.599Z,2050
2017-05-22T09:42:21.600Z,2095
2017-05-22T09:43:21.301Z,2030
2017-05-22T09:44:21.588Z,2065
2017-05-22T09:45:21.586Z,2085
2017-05-22T09:46:21.565Z,2115
2017-05-22T09:47:21.584Z,2155
2017-05-22T09:48:21.551Z,2150
2017-05-22T09:49:21.568Z,2180
2017-05-22T09:50:21.546Z,2165
2017-05-22T09:51:21.542Z,2125
2017-05-22T09:52:21.522Z,2125
2017-05-22T09:53:21.221Z,2180
2017-05-22T09:54:21.207Z,2170
2017-05-22T09:55:21.199Z,2175
2017-05-22T09:56:21.499Z,2165
2017-05-22T09:57:21.507Z,2165
2017-05-22T09:58:21.487Z,2140
2017-05-22T09:59:21.474Z,2125
2017-05-22T10:00:21.515Z,2125
2017-05-22T10:01:26.127Z,2170
2017-05-22T10:02:21.446Z,2185
2017-05-22T10:03:21.448Z,2175
2017-05-22T10:04:21.444Z,2185
2017-05-22T10:05:20.820Z,2195
2017-05-22T10:06:21.527Z,2130
2017-05-22T10:07:21.417Z,2090
2017-05-22T10:08:21.399Z,2065
2017-05-22T10:09:21.112Z,1990
2017-05-22T10:10:21.080Z,1945
2017-05-22T10:11:21.380Z,1935
2017-05-22T10:12:21.377Z,1940
2017-05-22T10:13:21.379Z,1955
2017-05-22T10:14:21.364Z,2010
2017-05-22T10:15:21.350Z,2045
2017-05-22T10:16:21.349Z,2120
2017-05-22T10:17:21.333Z,2155
2017-05-22T10:18:21.332Z,2195
2017-05-22T10:19:21.324Z,2225
2017-05-22T10:20:21.310Z,2270
2017-05-22T10:21:21.348Z,2280
2017-05-22T10:22:21.289Z,2290
2017-05-22T10:23:20.993Z,2315
2017-05-22T10:24:21.276Z,2300
2017-05-22T10:25:20.982Z,2280
2017-05-22T10:26:21.272Z,2260
2017-05-22T10:27:21.248Z,2250
2017-05-22T10:28:20.964Z,2240
2017-05-22T10:29:21.251Z,2250
2017-05-22T10:30:21.500Z,2240
2017-05-22T10:31:21.219Z,2220
2017-05-22T10:32:20.929Z,2220
2017-05-22T10:33:21.217Z,2200
2017-05-22T10:34:21.198Z,2170
2017-05-22T10:35:20.896Z,2160
2017-05-22T10:36:20.950Z,2155
2017-05-22T10:37:21.181Z,2160
2017-05-22T10:38:21.166Z,2185
2017-05-22T10:39:21.216Z,2265
2017-05-22T10:40:21.158Z,2200
2017-05-22T10:41:21.220Z,2145
2017-05-22T10:42:21.132Z,1825
2017-05-22T10:43:21.140Z,2250
2017-05-22T10:44:21.129Z,2295
2017-05-22T10:45:21.116Z,2350
2017-05-22T10:46:21.108Z,2380
2017-05-22T10:47:21.114Z,2370
2017-05-22T10:48:21.100Z,2365
2017-05-22T10:49:21.081Z,2390
2017-05-22T10:50:20.779Z,2410
2017-05-22T10:51:21.070Z,2400
2017-05-22T10:52:21.078Z,2395
2017-05-22T10:53:21.064Z,2335
2017-05-22T10:54:21.045Z,2360
2017-05-22T10:55:21.034Z,2395
2017-05-22T10:56:21.035Z,2395
2017-05-22T10:57:20.729Z,2445
2017-05-22T10:58:21.173Z,2490
2017-05-22T10:59:21.073Z,2515
2017-05-22T11:00:20.703Z,2495
2017-05-22T11:01:21.002Z,2495
2017-05-22T11:02:20.981Z,2475
2017-05-22T11:03:21.005Z,2455
2017-05-22T11:04:20.980Z,450
2017-05-22T11:05:20.679Z,400
2017-05-22T11:06:20.656Z,425
2017-05-22T11:07:20.646Z,580
2017-05-22T11:08:20.992Z,1220
2017-05-22T11:09:20.939Z,550
2017-05-22T11:10:20.627Z,500
2017-05-22T11:11:20.924Z,475
2017-05-22T11:12:20.910Z,430
2017-05-22T11:13:20.913Z,395
2017-05-22T11:14:20.890Z,375
2017-05-22T11:15:20.879Z,345
2017-05-22T11:16:20.880Z,325
2017-05-22T11:17:20.859Z,315
2017-05-22T11:18:20.936Z,300
2017-05-22T11:19:20.837Z,285
2017-05-22T11:20:20.213Z,280
2017-05-22T11:21:20.822Z,270
2017-05-22T11:22:20.814Z,270
2017-05-22T11:23:20.783Z,270
2017-05-22T11:24:20.768Z,285
2017-05-22T11:25:20.748Z,250
2017-05-22T11:26:20.441Z,235
2017-05-22T11:27:20.420Z,240
2017-05-22T11:28:20.719Z,255
2017-05-22T11:29:20.698Z,285
2017-05-22T11:30:20.675Z,275
2017-05-22T11:31:20.664Z,260
2017-05-22T11:32:20.644Z,240
2017-05-22T11:33:20.633Z,245
2017-05-22T11:34:20.618Z,260
2017-05-22T11:35:20.606Z,260
2017-05-22T11:36:20.591Z,255
2017-05-22T11:37:20.591Z,250
2017-05-22T11:38:20.555Z,245
2017-05-22T11:39:20.534Z,245
2017-05-22T11:40:20.527Z,245
2017-05-22T11:41:19.897Z,240
2017-05-22T11:42:20.480Z,240
2017-05-22T11:43:20.458Z,240
2017-05-22T11:44:20.460Z,240
2017-05-22T11:45:20.188Z,240
2017-05-22T11:46:20.422Z,245
2017-05-22T11:47:20.402Z,250
2017-05-22T11:48:20.448Z,260
2017-05-22T11:49:20.388Z,275
2017-05-22T11:50:20.361Z,290
2017-05-22T11:51:20.387Z,285
2017-05-22T11:52:20.312Z,275
2017-05-22T11:53:20.307Z,265
2017-05-22T11:54:20.292Z,255
2017-05-22T11:55:20.274Z,250
2017-05-22T11:56:20.331Z,250
2017-05-22T11:57:19.942Z,230
2017-05-22T11:58:19.915Z,220
2017-05-22T11:59:19.887Z,225
2017-05-22T12:00:20.193Z,235
2017-05-22T12:01:20.171Z,235
2017-05-22T12:02:20.148Z,225
2017-05-22T12:03:20.131Z,230
2017-05-22T12:04:20.127Z,230
2017-05-22T12:05:20.096Z,225
2017-05-22T12:06:19.481Z,235
2017-05-22T12:07:20.266Z,240
2017-05-22T12:08:20.039Z,225
2017-05-22T12:09:20.083Z,220
2017-05-22T12:10:20.016Z,215
2017-05-22T12:11:20.046Z,210
2017-05-22T12:12:19.678Z,210
2017-05-22T12:13:19.965Z,205
2017-05-22T12:14:19.941Z,205
2017-05-22T12:15:19.616Z,205
2017-05-22T12:16:19.905Z,200
2017-05-22T12:17:19.895Z,200
2017-05-22T12:18:19.572Z,200
2017-05-22T12:19:19.860Z,205
2017-05-22T12:20:19.853Z,205
2017-05-22T12:21:19.875Z,205
2017-05-22T12:22:19.813Z,205
2017-05-22T12:23:19.788Z,200
2017-05-22T12:24:19.783Z,200
2017-05-22T12:25:19.752Z,200
2017-05-22T12:26:19.735Z,200
2017-05-22T12:27:19.769Z,205
2017-05-22T12:28:19.400Z,205
2017-05-22T12:29:19.684Z,205
2017-05-22T12:30:19.661Z,205
2017-05-22T12:31:19.647Z,205
2017-05-22T12:32:19.575Z,205
2017-05-22T12:33:19.676Z,205
2017-05-22T12:34:19.598Z,205
2017-05-22T12:35:19.580Z,215
2017-05-22T12:36:19.568Z,220
2017-05-22T12:37:19.554Z,215
2017-05-22T12:38:19.531Z,210
2017-05-22T12:39:19.509Z,220
2017-05-22T12:40:19.249Z,230
2017-05-22T12:41:19.434Z,230
2017-05-22T12:42:19.508Z,230
2017-05-22T12:43:19.446Z,225
2017-05-22T12:44:18.889Z,215
2017-05-22T12:45:19.458Z,205
2017-05-22T12:46:19.395Z,200
2017-05-22T12:47:19.374Z,195
2017-05-22T12:48:19.466Z,200
2017-05-22T12:49:19.341Z,200
2017-05-22T12:50:19.617Z,205
2017-05-22T12:51:19.007Z,205
2017-05-22T12:52:18.985Z,200
2017-05-22T12:53:19.268Z,200
2017-05-22T12:54:19.245Z,195
2017-05-22T12:55:19.230Z,195
2017-05-22T12:56:19.209Z,195
2017-05-22T12:57:19.188Z,195
2017-05-22T12:58:19.187Z,200
2017-05-22T12:59:19.168Z,200
2017-05-22T13:00:19.143Z,200
2017-05-22T13:01:19.128Z,200
2017-05-22T13:02:18.815Z,205
2017-05-22T13:03:19.103Z,205
2017-05-22T13:04:19.073Z,200
2017-05-22T13:05:19.047Z,200
2017-05-22T13:06:19.046Z,200
2017-05-22T13:07:19.017Z,200
2017-05-22T13:08:19.012Z,200
2017-05-22T13:09:18.771Z,205
2017-05-22T13:10:18.968Z,210
2017-05-22T13:11:18.958Z,220
2017-05-22T13:12:18.939Z,215
2017-05-22T13:13:18.926Z,225
2017-05-22T13:14:18.911Z,235
2017-05-22T13:15:18.893Z,240
2017-05-22T13:16:18.882Z,230
2017-05-22T13:17:18.905Z,220
2017-05-22T13:18:18.837Z,210
2017-05-22T13:19:18.814Z,205
2017-05-22T13:20:18.793Z,200
2017-05-22T13:21:18.792Z,200
2017-05-22T13:22:19.019Z,205
2017-05-22T13:23:18.756Z,210
2017-05-22T13:24:18.738Z,215
2017-05-22T13:25:18.761Z,210
2017-05-22T13:26:18.705Z,205
2017-05-22T13:27:18.674Z,200
2017-05-22T13:28:18.666Z,200
2017-05-22T13:29:18.650Z,195
2017-05-22T13:30:18.640Z,195
2017-05-22T13:31:18.302Z,190
2017-05-22T13:32:18.589Z,190
2017-05-22T13:33:18.571Z,190
2017-05-22T13:34:18.558Z,185
2017-05-22T13:35:18.545Z,185
2017-05-22T13:36:18.526Z,180
2017-05-22T13:37:18.551Z,180
2017-05-22T13:38:18.488Z,180
2017-05-22T13:39:18.478Z,180
2017-05-22T13:40:18.445Z,180
2017-05-22T13:41:18.436Z,180
2017-05-22T13:42:18.511Z,180
2017-05-22T13:43:18.105Z,175
2017-05-22T13:44:18.393Z,175
2017-05-22T13:45:18.381Z,180
2017-05-22T13:46:18.043Z,170
2017-05-22T13:47:18.334Z,170
2017-05-22T13:48:18.327Z,170
2017-05-22T13:49:18.305Z,170
2017-05-22T13:50:18.282Z,170
2017-05-22T13:51:18.265Z,165
2017-05-22T13:52:18.242Z,165